Time;durP1;ratioP1;P1;durP2;ratioP2;P2;SDS_P1;SDS_P2;PMS_P1;PMS_P2;Temp;Humidity;BMP_temperature;BMP_pressure;BME280_temperature;BME280_humidity;BME280_pressure;Samples;Min_cycle;Max_cycle;Signal;HPM_P1;HPM_P2
2024/02/09 00:02:12;;;;;;;;;;;;;;;26.60;37.66;92289.88;5000874;28;7345;-42
2024/02/09 00:04:42;;;;;;;;;;;;;;;26.61;38.08;92292.06;4993102;28;7282;-41
2024/02/09 00:07:08;;;;;;;;;;;;;;;26.59;37.74;92278.09;5046923;28;7194;-41
2024/02/09 00:09:37;;;;;;;;;;;;;;;26.59;38.22;92260.81;5054000;28;9492;-41
2024/02/09 00:12:05;;;;;;;;;;;;;;;26.60;37.97;92259.53;5049917;28;7131;-40
2024/02/09 00:14:32;;;;;;;;;;;;;;;26.58;38.21;92262.84;5052849;28;7164;-41
2024/02/09 00:16:59;;;;;;;;;;;;;;;26.56;38.19;92265.44;5053457;28;9150;-40
2024/02/09 00:19:28;;;;;;;;;;;;;;;26.57;38.13;92257.91;5068293;28;7246;-40
2024/02/09 00:21:54;;;;;;;;;;;;;;;26.59;37.57;92247.03;5068664;28;6995;-41
2024/02/09 00:24:22;;;;;;;;;;;;;;;26.56;37.95;92254.41;5054139;28;7141;-40
2024/02/09 00:26:51;;;;;;;;;;;;;;;26.58;38.03;92251.09;5044512;28;9060;-41
2024/02/09 00:29:22;;;;;;;;;;;;;;;26.62;37.68;92256.94;5053076;28;7278;-42
2024/02/09 00:31:57;;;;;;;;;;;;;;;26.61;38.15;92255.47;5073785;28;7125;-41
2024/02/09 00:34:34;;;;;;;;;;;;;;;26.62;37.91;92254.19;5066333;28;7035;-40
2024/02/09 00:37:11;;;;;;;;;;;;;;;26.61;37.59;92244.44;5055421;28;9419;-41
2024/02/09 00:39:42;;;;;;;;;;;;;;;26.58;37.86;92249.06;5056184;28;7442;-40
2024/02/09 00:42:12;;;;;;;;;;;;;;;26.58;37.65;92251.09;5055066;28;6981;-40
2024/02/09 00:44:49;;;;;;;;;;;;;;;26.57;38.05;92252.41;5076752;28;9032;-41
2024/02/09 00:47:23;;;;;;;;;;;;;;;26.58;37.33;92251.81;5077454;28;7281;-42
2024/02/09 00:49:53;;;;;;;;;;;;;;;26.54;38.13;92240.47;5056606;28;7058;-40
2024/02/09 00:52:27;;;;;;;;;;;;;;;26.56;38.35;92248.91;5075392;28;9086;-40
2024/02/09 00:55:08;;;;;;;;;;;;;;;26.57;37.67;92242.09;5076094;28;7242;-40
2024/02/09 00:57:48;;;;;;;;;;;;;;;26.56;37.65;92235.13;5039962;28;9536;-40
2024/02/09 01:00:21;;;;;;;;;;;;;;;26.54;37.50;92223.94;5058758;28;7247;-40
2024/02/09 01:02:47;;;;;;;;;;;;;;;26.54;37.85;92226.69;5073390;28;9088;-41
2024/02/09 01:05:38;;;;;;;;;;;;;;;26.55;37.96;92233.69;5057739;28;7257;-41
2024/02/09 01:08:04;;;;;;;;;;;;;;;26.55;38.15;92233.69;5076721;28;7281;-41
2024/02/09 01:10:33;;;;;;;;;;;;;;;26.51;37.63;92235.38;5055171;28;7035;-40
2024/02/09 02:44:46;;;;;;;;;;;;;;;26.39;37.75;92235.13;5075121;28;7351;-41
2024/02/09 02:47:21;;;;;;;;;;;;;;;26.41;37.93;92242.81;5049411;28;7507;-43
2024/02/09 03:04:18;;;;;;;;;;;;;;;26.41;38.31;92234.56;5066466;28;7861;-41
2024/02/09 03:04:19;;;;;;;;;;;;;;;26.38;38.07;92222.63;5070148;28;7219;-42
2024/02/09 03:06:46;;;;;;;;;;;;;;;26.40;37.97;92228.34;5066463;28;6991;-41
2024/02/09 03:09:14;;;;;;;;;;;;;;;26.37;38.21;92223.94;5054526;28;7873;-41
2024/02/09 03:11:40;;;;;;;;;;;;;;;26.40;37.82;92236.59;5068716;28;7332;-42
2024/02/09 03:14:07;;;;;;;;;;;;;;;26.36;38.16;92225.22;5054744;28;7251;-41
2024/02/09 03:16:39;;;;;;;;;;;;;;;26.40;37.89;92227.59;5056668;28;9056;-42
2024/02/09 03:19:15;;;;;;;;;;;;;;;26.40;37.45;92233.84;5062473;28;7246;-43
2024/02/09 03:22:06;;;;;;;;;;;;;;;26.40;37.72;92231.09;5051978;28;7844;-41
2024/02/09 03:24:45;;;;;;;;;;;;;;;26.41;38.00;92234.56;5053848;28;7034;-41
2024/02/09 03:27:13;;;;;;;;;;;;;;;26.39;37.62;92235.13;5063690;28;7301;-40
2024/02/09 03:29:39;;;;;;;;;;;;;;;26.39;37.54;92231.63;5071126;28;8973;-43
2024/02/09 03:32:06;;;;;;;;;;;;;;;26.38;37.70;92232.94;5066954;28;7223;-41
2024/02/09 03:34:32;;;;;;;;;;;;;;;26.37;37.90;92237.72;5047559;28;9070;-41
2024/02/09 03:37:02;;;;;;;;;;;;;;;26.39;37.78;92245.41;5049788;28;7239;-41
2024/02/09 03:39:38;;;;;;;;;;;;;;;26.40;37.71;92233.09;5069550;28;9080;-43
2024/02/09 03:42:21;;;;;;;;;;;;;;;26.38;37.93;92239.16;5068731;28;9067;-56
2024/02/09 03:44:48;;;;;;;;;;;;;;;26.38;37.75;92249.47;5063186;28;9166;-56
2024/02/09 03:47:30;;;;;;;;;;;;;;;26.37;38.03;92246.00;5038541;28;7001;-56
2024/02/09 03:50:14;;;;;;;;;;;;;;;26.40;37.68;92238.63;5072753;28;7060;-55
2024/02/09 03:52:44;;;;;;;;;;;;;;;26.38;38.04;92236.41;5074137;28;7315;-55
2024/02/09 03:55:21;;;;;;;;;;;;;;;26.39;37.98;92246.16;5056068;28;7248;-56
2024/02/09 03:58:01;;;;;;;;;;;;;;;26.39;38.15;92248.16;5074417;28;8010;-56
2024/02/09 04:00:27;;;;;;;;;;;;;;;26.36;37.86;92230.03;5062710;28;7601;-56
2024/02/09 04:02:53;;;;;;;;;;;;;;;26.36;37.75;92230.75;5053654;28;7262;-55
2024/02/09 04:05:22;;;;;;;;;;;;;;;26.39;38.26;92234.41;5064317;28;9514;-54
2024/02/09 04:07:50;;;;;;;;;;;;;;;26.36;38.20;92222.47;5051430;28;6978;-54
2024/02/09 04:10:20;;;;;;;;;;;;;;;26.35;38.08;92228.56;5070434;28;8111;-55
2024/02/09 04:12:48;;;;;;;;;;;;;;;26.36;37.70;92230.75;5045047;28;8844;-55
2024/02/09 04:15:14;;;;;;;;;;;;;;;26.36;38.14;92224.53;5072690;28;8945;-55
2024/02/09 04:17:51;;;;;;;;;;;;;;;26.35;38.08;92220.28;5039131;28;7054;-55
2024/02/09 04:20:26;;;;;;;;;;;;;;;26.35;38.05;92215.50;5068507;28;7431;-55
2024/02/09 04:22:52;;;;;;;;;;;;;;;26.35;37.93;92215.50;5044822;28;7236;-56
2024/02/09 04:25:27;;;;;;;;;;;;;;;26.36;38.11;92210.75;5071416;28;7046;-54
2024/02/09 04:27:55;;;;;;;;;;;;;;;26.35;38.01;92212.03;5073520;28;9107;-55
2024/02/09 04:30:23;;;;;;;;;;;;;;;26.33;37.80;92206.34;5071409;28;7390;-55
2024/02/09 04:32:50;;;;;;;;;;;;;;;26.35;37.84;92212.03;5069599;28;7091;-55
2024/02/09 04:35:24;;;;;;;;;;;;;;;26.37;38.06;92209.44;5055770;28;7006;-56
2024/02/09 04:38:06;;;;;;;;;;;;;;;26.37;38.36;92203.91;5073083;28;7260;-55
2024/02/09 04:41:20;;;;;;;;;;;;;;;26.37;37.33;92212.19;5054957;28;7266;-55
2024/02/09 04:44:25;;;;;;;;;;;;;;;26.37;38.29;92207.41;4965634;28;9085;-56
2024/02/09 04:46:51;;;;;;;;;;;;;;;26.36;37.84;92205.22;4972763;28;7240;-56
2024/02/09 04:49:27;;;;;;;;;;;;;;;26.36;37.48;92196.97;4971389;28;7228;-56
2024/02/09 04:52:03;;;;;;;;;;;;;;;26.36;38.32;92199.72;4972135;28;7252;-41
2024/02/09 04:54:40;;;;;;;;;;;;;;;26.35;37.69;92201.00;4967899;28;7290;-40
2024/02/09 04:57:08;;;;;;;;;;;;;;;26.35;37.77;92192.72;4972976;28;7006;-40
2024/02/09 04:59:36;;;;;;;;;;;;;;;26.35;37.68;92189.97;4956230;28;7222;-39
2024/02/09 05:02:15;;;;;;;;;;;;;;;26.33;37.58;92187.06;4964783;28;7967;-39
2024/02/09 05:04:47;;;;;;;;;;;;;;;26.33;37.94;92176.78;4966040;28;9073;-40
2024/02/09 05:07:14;;;;;;;;;;;;;;;26.33;38.01;92171.25;4954514;28;7276;-39
2024/02/09 05:09:40;;;;;;;;;;;;;;;26.32;37.79;92172.53;4954163;28;7283;-39
2024/02/09 05:12:06;;;;;;;;;;;;;;;26.31;37.96;92162.84;4968520;28;9853;-39
2024/02/09 05:14:34;;;;;;;;;;;;;;;26.30;37.72;92157.88;4959453;28;7204;-40
2024/02/09 05:17:00;;;;;;;;;;;;;;;26.32;38.78;92158.06;4954208;28;9297;-39
2024/02/09 05:19:26;;;;;;;;;;;;;;;26.35;37.87;92156.91;4988107;28;9339;-39
2024/02/09 05:21:58;;;;;;;;;;;;;;;26.34;37.77;92149.94;5048112;28;9081;-39
2024/02/09 05:24:26;;;;;;;;;;;;;;;26.34;38.04;92145.13;5071509;28;7209;-40
2024/02/09 05:26:55;;;;;;;;;;;;;;;26.34;37.50;92138.91;5054376;28;7135;-40
2024/02/09 05:29:22;;;;;;;;;;;;;;;26.34;37.97;92145.13;5075750;28;7127;-40
2024/02/09 05:31:51;;;;;;;;;;;;;;;26.33;37.95;92142.97;5073999;28;9198;-39
2024/02/09 05:34:21;;;;;;;;;;;;;;;26.33;37.94;92143.69;5067702;28;7241;-40
2024/02/09 05:36:47;;;;;;;;;;;;;;;26.33;37.59;92143.69;5073911;28;6990;-39
2024/02/09 05:39:13;;;;;;;;;;;;;;;26.35;37.93;92143.13;5048955;28;7021;-40
2024/02/09 05:41:41;;;;;;;;;;;;;;;26.34;38.39;92133.41;5053186;28;7226;-39
2024/02/09 05:44:07;;;;;;;;;;;;;;;26.35;37.68;92134.84;5059556;28;8895;-40
2024/02/09 05:46:35;;;;;;;;;;;;;;;26.34;38.03;92138.91;5071401;28;7315;-40
2024/02/09 05:49:06;;;;;;;;;;;;;;;26.34;37.82;92127.91;5070775;28;7258;-40
2024/02/09 05:51:41;;;;;;;;;;;;;;;26.36;38.20;92128.75;5057886;28;7054;-40
2024/02/09 05:54:11;;;;;;;;;;;;;;;26.33;38.48;92118.16;5073075;28;7219;-40
2024/02/09 05:57:10;;;;;;;;;;;;;;;26.36;38.45;92117.75;5074573;28;6859;-41
2024/02/09 05:59:38;;;;;;;;;;;;;;;26.38;38.17;92114.44;4974555;28;7278;-42
2024/02/09 06:02:06;;;;;;;;;;;;;;;26.37;38.28;92121.22;4950152;28;7053;-38
2024/02/09 06:04:34;;;;;;;;;;;;;;;26.33;38.89;92115.41;4969427;28;6932;-38
2024/02/09 06:07:00;;;;;;;;;;;;;;;26.37;38.41;92135.00;4954702;28;7945;-38
2024/02/09 06:09:26;;;;;;;;;;;;;;;26.33;38.83;92124.41;4955742;28;9194;-38
2024/02/09 06:11:56;;;;;;;;;;;;;;;26.35;38.49;92132.09;4956655;28;7245;-38
2024/02/09 06:14:22;;;;;;;;;;;;;;;26.35;38.51;92132.09;4961705;28;9269;-37
2024/02/09 06:16:48;;;;;;;;;;;;;;;26.34;38.88;92139.63;4940491;28;7077;-38
2024/02/09 06:19:21;;;;;;;;;;;;;;;26.36;38.59;92144.59;4953029;28;8667;-38
2024/02/09 06:21:48;;;;;;;;;;;;;;;26.34;38.74;92138.91;4964920;28;7071;-38
2024/02/09 06:24:13;;;;;;;;;;;;;;;26.35;38.54;92143.13;4958398;28;8180;-37
2024/02/09 06:26:39;;;;;;;;;;;;;;;26.39;38.70;92144.16;4957497;28;7494;-38
2024/02/09 06:29:07;;;;;;;;;;;;;;;26.38;38.54;92145.47;4967714;28;7241;-38
2024/02/09 06:31:41;;;;;;;;;;;;;;;26.36;38.34;92131.53;4953918;28;7187;-37
2024/02/09 06:34:10;;;;;;;;;;;;;;;26.40;38.30;92139.41;4968325;28;7169;-38
2024/02/09 06:36:36;;;;;;;;;;;;;;;26.39;38.09;92141.41;5070268;28;9447;-38
2024/02/09 06:39:09;;;;;;;;;;;;;;;26.38;39.18;92144.75;5056994;28;9694;-38
2024/02/09 06:41:35;;;;;;;;;;;;;;;26.41;38.37;92146.34;5067762;28;8767;-38
2024/02/09 06:44:02;;;;;;;;;;;;;;;26.39;38.63;92144.16;5068420;28;7075;-37
2024/02/09 06:46:28;;;;;;;;;;;;;;;26.41;38.80;92149.09;5064780;28;8742;-38
2024/02/09 06:49:00;;;;;;;;;;;;;;;26.39;38.04;92138.66;5075928;28;7048;-37
2024/02/09 06:51:29;;;;;;;;;;;;;;;26.40;37.88;92142.16;5068118;28;6992;-37
2024/02/09 06:53:58;;;;;;;;;;;;;;;26.38;38.62;92142.69;5050895;28;9461;-37
2024/02/09 06:56:28;;;;;;;;;;;;;;;26.36;38.15;92141.84;5066580;28;7309;-37
2024/02/09 06:58:58;;;;;;;;;;;;;;;26.37;38.00;92137.75;5050428;28;6985;-37
2024/02/09 07:01:39;;;;;;;;;;;;;;;26.36;38.50;92134.28;5057487;28;8189;-37
2024/02/09 07:04:16;;;;;;;;;;;;;;;26.36;38.54;92131.53;5053712;28;7002;-37
2024/02/09 07:06:43;;;;;;;;;;;;;;;26.36;38.03;92134.28;5053533;28;8280;-37
2024/02/09 07:09:17;;;;;;;;;;;;;;;26.35;38.78;92129.34;5054818;28;8726;-38
2024/02/09 07:11:47;;;;;;;;;;;;;;;26.33;38.27;92126.44;5055379;28;7219;-40
2024/02/09 07:14:19;;;;;;;;;;;;;;;26.32;38.28;92125.69;5051537;28;9194;-40
2024/02/09 07:16:46;;;;;;;;;;;;;;;26.35;37.88;92121.81;5060976;28;7255;-43
2024/02/09 07:19:13;;;;;;;;;;;;;;;26.36;38.49;92119.78;5065663;28;6981;-41
2024/02/09 07:21:55;;;;;;;;;;;;;;;26.35;38.36;92123.81;5053669;28;7285;-40
2024/02/09 07:24:25;;;;;;;;;;;;;;;26.33;38.06;92118.16;5073729;28;7387;-41
2024/02/09 07:26:53;;;;;;;;;;;;;;;26.35;38.11;92130.06;5070427;28;7251;-40
2024/02/09 07:29:39;;;;;;;;;;;;;;;26.31;38.52;92129.03;5055275;28;9613;-40
2024/02/09 07:32:16;;;;;;;;;;;;;;;26.35;38.46;92140.38;5056613;28;7251;-40
2024/02/09 07:35:19;;;;;;;;;;;;;;;26.36;38.24;92137.03;5067772;28;9385;-40
2024/02/09 07:37:49;;;;;;;;;;;;;;;26.38;38.33;92133.72;5054449;28;8307;-40
2024/02/09 07:40:31;;;;;;;;;;;;;;;26.39;38.37;92143.44;5056291;28;7006;-40
2024/02/09 07:43:36;;;;;;;;;;;;;;;26.35;38.15;92143.13;5062191;28;7054;-41
2024/02/09 07:46:30;;;;;;;;;;;;;;;26.33;38.71;92149.22;5068711;28;9432;-39
2024/02/09 07:49:26;;;;;;;;;;;;;;;26.34;38.21;92141.69;4954005;28;6990;-41
2024/02/09 07:52:03;;;;;;;;;;;;;;;26.35;38.97;92143.13;4950361;28;7282;-41
2024/02/09 07:54:55;;;;;;;;;;;;;;;26.34;38.40;92142.38;4950989;28;7156;-40
2024/02/09 07:57:34;;;;;;;;;;;;;;;26.33;38.82;92154.00;4971776;28;7280;-40
2024/02/09 08:00:00;;;;;;;;;;;;;;;26.34;39.20;92160.97;4964314;28;7251;-41
2024/02/09 08:02:35;;;;;;;;;;;;;;;26.33;38.98;92143.69;4952177;28;7393;-40
2024/02/09 08:05:17;;;;;;;;;;;;;;;26.36;39.35;92153.56;4936992;28;9047;-40
2024/02/09 08:07:55;;;;;;;;;;;;;;;26.34;39.11;92155.47;4952615;28;9166;-41
2024/02/09 08:10:21;;;;;;;;;;;;;;;26.36;38.98;92152.88;4944253;28;7278;-40
2024/02/09 08:12:47;;;;;;;;;;;;;;;26.36;39.24;92150.81;4931488;28;9080;-42
2024/02/09 08:15:15;;;;;;;;;;;;;;;26.37;38.67;92148.78;4938715;28;6957;-42
2024/02/09 08:17:52;;;;;;;;;;;;;;;26.36;38.63;92141.84;4955900;28;8836;-40
2024/02/09 08:20:19;;;;;;;;;;;;;;;26.34;39.02;92147.91;4936292;28;9252;-40
2024/02/09 08:22:46;;;;;;;;;;;;;;;26.35;39.19;92141.09;4935342;28;9462;-55
2024/02/09 08:25:14;;;;;;;;;;;;;;;26.36;39.41;92136.31;4968553;28;7191;-55
2024/02/09 08:27:42;;;;;;;;;;;;;;;26.35;39.33;92124.56;5046966;28;7150;-55
2024/02/09 08:30:10;;;;;;;;;;;;;;;26.37;39.11;92137.75;5061971;28;7831;-55
2024/02/09 08:32:38;;;;;;;;;;;;;;;26.38;39.26;92136.47;5067572;28;7098;-56
2024/02/09 08:35:08;;;;;;;;;;;;;;;26.38;39.21;92128.22;5047926;28;9370;-56
2024/02/09 08:37:35;;;;;;;;;;;;;;;26.38;39.00;92125.47;5042915;28;6991;-55
2024/02/09 08:40:02;;;;;;;;;;;;;;;26.38;39.15;92139.94;5047872;28;7330;-57
2024/02/09 08:42:29;;;;;;;;;;;;;;;26.42;39.53;92123.00;5069269;28;7254;-57
2024/02/09 08:44:57;;;;;;;;;;;;;;;26.42;39.95;92123.00;5055255;28;8827;-57
2024/02/09 08:47:25;;;;;;;;;;;;;;;26.41;40.16;92108.50;5057321;28;7238;-57
2024/02/09 08:49:51;;;;;;;;;;;;;;;26.45;40.02;92111.56;5052086;28;7062;-56
2024/02/09 08:52:26;;;;;;;;;;;;;;;26.45;39.62;92117.06;5046640;28;7223;-57
2024/02/09 08:54:57;;;;;;;;;;;;;;;26.44;39.66;92110.13;5052104;28;7054;-56
2024/02/09 08:57:24;;;;;;;;;;;;;;;26.43;39.34;92108.66;5049175;28;8266;-56
2024/02/09 09:00:05;;;;;;;;;;;;;;;26.43;39.13;92096.88;5073562;28;6986;-56
2024/02/09 09:02:46;;;;;;;;;;;;;;;26.42;39.27;92112.00;5073926;28;7252;-56
2024/02/09 09:05:28;;;;;;;;;;;;;;;26.43;39.60;92107.91;5053668;28;7272;-56
2024/02/09 09:07:56;;;;;;;;;;;;;;;26.42;39.15;92092.69;5057374;28;7326;-56
2024/02/09 09:10:22;;;;;;;;;;;;;;;26.43;39.10;92096.88;5055380;28;7266;-56
2024/02/09 09:12:50;;;;;;;;;;;;;;;26.43;39.08;92089.34;5057507;28;7021;-57
2024/02/09 09:15:16;;;;;;;;;;;;;;;26.43;39.26;92085.88;5055344;28;9494;-57
2024/02/09 09:17:47;;;;;;;;;;;;;;;26.41;38.76;92077.44;5072828;28;7178;-58
2024/02/09 09:20:16;;;;;;;;;;;;;;;26.41;39.35;92075.41;5047938;28;7414;-56
2024/02/09 09:22:58;;;;;;;;;;;;;;;26.41;39.04;92071.94;5074278;28;7285;-57
2024/02/09 09:25:24;;;;;;;;;;;;;;;26.38;39.78;92071.03;5066434;28;7242;-57
2024/02/09 09:27:52;;;;;;;;;;;;;;;26.39;39.41;92058.00;5070658;28;8815;-57
2024/02/09 09:30:33;;;;;;;;;;;;;;;26.38;39.94;92056.56;5076262;28;7137;-57
2024/02/09 09:33:13;;;;;;;;;;;;;;;26.37;39.33;92050.31;5059542;28;7239;-45
2024/02/09 09:36:00;;;;;;;;;;;;;;;26.35;39.57;92052.91;5076566;28;7835;-44
2024/02/09 09:38:38;;;;;;;;;;;;;;;26.36;39.05;92051.59;5054403;28;7097;-43
2024/02/09 09:41:40;;;;;;;;;;;;;;;26.39;39.16;92049.72;5064827;28;9583;-43
2024/02/09 09:44:15;;;;;;;;;;;;;;;26.38;39.86;92062.06;5017698;28;7340;-43
2024/02/09 09:46:45;;;;;;;;;;;;;;;26.38;39.56;92062.06;4995362;28;7325;-42
2024/02/09 09:49:16;;;;;;;;;;;;;;;26.35;39.49;92038.41;5018083;28;6998;-42
2024/02/09 09:51:49;;;;;;;;;;;;;;;26.33;39.21;92044.50;5016444;28;7075;-42
2024/02/09 09:54:48;;;;;;;;;;;;;;;26.35;39.37;92054.94;4999105;28;7020;-42
2024/02/09 09:57:15;;;;;;;;;;;;;;;26.37;39.05;92033.03;5011801;28;7258;-43
2024/02/09 09:59:43;;;;;;;;;;;;;;;26.37;38.97;92038.53;5014443;28;7000;-43
2024/02/09 10:02:09;;;;;;;;;;;;;;;26.40;39.64;92042.94;5012030;28;7289;-42
2024/02/09 10:04:41;;;;;;;;;;;;;;;26.44;39.06;92041.22;5012923;28;7042;-42
2024/02/09 10:07:40;;;;;;;;;;;;;;;26.45;39.28;92050.19;5008079;28;7069;-42
2024/02/09 10:10:13;;;;;;;;;;;;;;;26.43;39.71;92036.25;4971691;28;9034;-44
2024/02/09 10:12:39;;;;;;;;;;;;;;;26.45;39.13;92036.41;4969061;28;7349;-43
2024/02/09 10:15:08;;;;;;;;;;;;;;;26.44;39.67;92040.47;4974697;28;7285;-42
2024/02/09 10:17:46;;;;;;;;;;;;;;;26.42;39.02;92029.28;4970583;28;7406;-44
2024/02/09 10:20:22;;;;;;;;;;;;;;;26.44;38.97;92026.69;4968075;28;9075;-44
2024/02/09 10:22:57;;;;;;;;;;;;;;;26.44;39.31;92019.16;4991943;28;7236;-42
2024/02/09 10:25:33;;;;;;;;;;;;;;;26.46;39.08;92018.59;4978240;28;7150;-41
2024/02/09 10:28:00;;;;;;;;;;;;;;;26.45;38.74;92025.38;4993766;28;7260;-42
2024/02/09 10:30:38;;;;;;;;;;;;;;;26.46;39.48;92019.31;4990993;28;9289;-44
2024/02/09 10:33:08;;;;;;;;;;;;;;;26.48;39.64;92021.50;4973377;28;8964;-43
2024/02/09 10:35:37;;;;;;;;;;;;;;;26.43;38.99;92030.75;4976548;28;7008;-42
2024/02/09 10:38:12;;;;;;;;;;;;;;;26.41;39.30;92027.84;4973320;28;7262;-42
2024/02/09 10:40:38;;;;;;;;;;;;;;;26.41;39.14;92034.06;4991967;28;7053;-42
2024/02/09 10:43:05;;;;;;;;;;;;;;;26.41;39.34;92030.59;4973205;28;7066;-42
2024/02/09 10:45:38;;;;;;;;;;;;;;;26.40;39.63;92026.38;4990637;28;7105;-42
2024/02/09 10:48:36;;;;;;;;;;;;;;;26.42;39.21;92035.53;5091918;28;6984;-42
2024/02/09 10:51:27;;;;;;;;;;;;;;;26.41;39.04;92025.06;5005777;28;7486;-43
2024/02/09 10:54:27;;;;;;;;;;;;;;;26.41;39.18;92025.06;4995851;28;7228;-54
2024/02/09 10:57:13;;;;;;;;;;;;;;;26.42;38.99;92023.78;4961143;28;7138;-54
2024/02/09 10:59:41;;;;;;;;;;;;;;;26.42;39.38;92023.78;4947431;28;6994;-52
2024/02/09 11:02:11;;;;;;;;;;;;;;;26.43;39.16;92025.22;4957070;28;7219;-55
2024/02/09 11:04:39;;;;;;;;;;;;;;;26.42;38.79;92023.78;4940536;28;9063;-55
2024/02/09 11:07:06;;;;;;;;;;;;;;;26.40;38.47;92035.41;4940916;28;9456;-55
2024/02/09 11:09:33;;;;;;;;;;;;;;;26.38;38.77;92037.97;4953490;28;7398;-55
2024/02/09 11:12:00;;;;;;;;;;;;;;;26.40;38.08;92034.66;4942550;28;7253;-52
2024/02/09 11:14:32;;;;;;;;;;;;;;;26.39;38.48;92024.91;4953018;28;7455;-54
2024/02/09 11:17:10;;;;;;;;;;;;;;;26.36;37.67;92021.28;4953509;28;8461;-53
2024/02/09 11:19:52;;;;;;;;;;;;;;;26.39;38.26;92035.94;4957491;28;9320;-55
2024/02/09 11:22:18;;;;;;;;;;;;;;;26.39;37.89;92027.69;4931368;28;9260;-54
2024/02/09 11:24:49;;;;;;;;;;;;;;;26.35;38.39;92024.63;4937649;28;9062;-54
2024/02/09 11:27:15;;;;;;;;;;;;;;;26.30;38.75;92012.53;4953729;28;8742;-54
2024/02/09 11:29:52;;;;;;;;;;;;;;;26.32;37.80;92015.47;4979800;28;6985;-52
2024/02/09 11:32:27;;;;;;;;;;;;;;;26.34;38.35;92009.41;4999789;28;7104;-55
2024/02/09 11:35:02;;;;;;;;;;;;;;;26.34;38.32;92007.34;5065232;28;8928;-54
2024/02/09 11:37:31;;;;;;;;;;;;;;;26.37;38.40;91997.22;5056390;28;9470;-54
2024/02/09 11:39:58;;;;;;;;;;;;;;;26.38;38.69;91996.63;5068179;28;6995;-53
2024/02/09 11:42:24;;;;;;;;;;;;;;;26.38;38.15;91995.91;5070607;28;7062;-55
2024/02/09 11:45:28;;;;;;;;;;;;;;;26.36;38.36;91998.53;5056739;28;7711;-54
2024/02/09 11:47:54;;;;;;;;;;;;;;;26.38;38.24;91991.13;4989959;28;8009;-56
2024/02/09 11:50:31;;;;;;;;;;;;;;;26.40;38.96;91996.81;4967127;28;8771;-56
2024/02/09 11:53:13;;;;;;;;;;;;;;;26.42;38.40;91996.97;4973963;28;7075;-54
2024/02/09 11:55:56;;;;;;;;;;;;;;;26.42;38.69;91991.44;4982051;28;7251;-53
2024/02/09 11:58:26;;;;;;;;;;;;;;;26.42;38.48;91982.44;4974467;28;9000;-56
2024/02/09 12:00:53;;;;;;;;;;;;;;;26.44;38.96;91979.84;4975241;28;9463;-53
2024/02/09 12:03:36;;;;;;;;;;;;;;;26.45;38.85;91973.75;4988003;28;7128;-42
2024/02/09 12:06:21;;;;;;;;;;;;;;;26.47;39.17;91975.94;4974188;28;7566;-42
2024/02/09 12:08:50;;;;;;;;;;;;;;;26.47;38.97;91964.91;4999927;28;9087;-42
2024/02/09 12:11:20;;;;;;;;;;;;;;;26.47;38.62;91970.44;4974153;28;8469;-41
2024/02/09 12:13:47;;;;;;;;;;;;;;;26.43;39.05;91962.56;4978096;28;9425;-43
2024/02/09 12:16:16;;;;;;;;;;;;;;;26.44;38.61;91966.06;4969995;28;7274;-43
2024/02/09 12:18:59;;;;;;;;;;;;;;;26.42;38.11;91954.88;4991796;28;7562;-42
2024/02/09 12:21:33;;;;;;;;;;;;;;;26.42;38.39;91963.16;5000891;28;7066;-42
2024/02/09 12:24:26;;;;;;;;;;;;;;;26.41;38.60;91948.63;5064851;28;7287;-44
2024/02/09 12:27:19;;;;;;;;;;;;;;;26.44;38.37;91957.78;5059639;28;9321;-44
2024/02/09 12:30:21;;;;;;;;;;;;;;;26.44;38.33;91952.28;5068671;28;7499;-42
2024/02/09 12:32:52;;;;;;;;;;;;;;;26.44;38.22;91960.53;5011214;28;7622;-42
2024/02/09 12:35:31;;;;;;;;;;;;;;;26.43;38.44;91959.06;5002833;28;6949;-42
2024/02/09 12:37:57;;;;;;;;;;;;;;;26.42;38.86;91949.38;4990578;28;7362;-42
2024/02/09 12:40:24;;;;;;;;;;;;;;;26.45;38.36;91942.69;5006256;28;7091;-42
2024/02/09 12:42:53;;;;;;;;;;;;;;;26.42;38.55;91935.59;4999171;28;8096;-42
2024/02/09 12:45:31;;;;;;;;;;;;;;;26.44;38.50;91927.47;4994328;28;7299;-42
2024/02/09 12:47:58;;;;;;;;;;;;;;;26.44;38.08;91916.44;4987012;28;7478;-43
2024/02/09 12:50:45;;;;;;;;;;;;;;;26.48;38.72;91911.22;5016113;28;9051;-42
2024/02/09 12:53:36;;;;;;;;;;;;;;;26.43;39.18;91904.69;4999647;28;7245;-43
2024/02/09 12:56:12;;;;;;;;;;;;;;;26.46;38.80;91905.56;5008063;28;7266;-42
2024/02/09 12:58:40;;;;;;;;;;;;;;;26.44;38.44;91910.94;5010540;28;8839;-42
2024/02/09 13:01:36;;;;;;;;;;;;;;;26.61;38.81;91908.81;4985747;28;7507;-42
2024/02/09 13:04:05;;;;;;;;;;;;;;;26.67;38.49;91897.50;4953188;29;9063;-43
2024/02/09 13:06:33;;;;;;;;;;;;;;;26.65;38.62;91891.84;4968120;28;9094;-43
2024/02/09 13:08:59;;;;;;;;;;;;;;;26.67;38.24;91916.78;4991764;28;7239;-42
2024/02/09 13:11:30;;;;;;;;;;;;;;;26.67;38.51;91911.28;4974383;28;7070;-43
2024/02/09 13:13:59;;;;;;;;;;;;;;;26.66;38.44;91907.09;4968838;28;8789;-42
2024/02/09 13:16:41;;;;;;;;;;;;;;;26.62;38.89;91901.97;4984955;28;7420;-41
2024/02/09 13:19:19;;;;;;;;;;;;;;;26.60;38.25;91896.31;4987276;28;9290;-42
2024/02/09 13:22:01;;;;;;;;;;;;;;;26.60;38.36;91888.03;4991584;28;9106;-42
2024/02/09 13:24:39;;;;;;;;;;;;;;;26.57;38.47;91874.69;4991928;28;7223;-41
2024/02/09 13:27:37;;;;;;;;;;;;;;;26.56;38.81;91884.25;4991948;28;8815;-41
2024/02/09 13:30:07;;;;;;;;;;;;;;;26.56;38.53;91887.00;4946116;28;9273;-43
2024/02/09 13:32:36;;;;;;;;;;;;;;;26.56;38.44;91893.25;4943807;28;8763;-42
2024/02/09 13:35:11;;;;;;;;;;;;;;;26.59;38.33;91897.63;4936279;29;7985;-44
2024/02/09 13:37:51;;;;;;;;;;;;;;;26.59;38.45;91894.16;4946529;28;9495;-43
2024/02/09 13:40:19;;;;;;;;;;;;;;;26.60;38.66;91896.31;4940655;28;7578;-44
2024/02/09 13:43:09;;;;;;;;;;;;;;;26.60;38.57;91882.53;4991147;28;7236;-42
2024/02/09 13:45:53;;;;;;;;;;;;;;;26.61;38.79;91902.56;4983529;28;7225;-42
2024/02/09 13:48:19;;;;;;;;;;;;;;;26.61;38.56;91895.03;4985066;28;6975;-42
2024/02/09 13:50:57;;;;;;;;;;;;;;;26.58;38.15;91887.91;4982256;28;7231;-43
2024/02/09 13:53:28;;;;;;;;;;;;;;;26.60;38.59;91890.09;4974998;28;7022;-42
2024/02/09 13:55:57;;;;;;;;;;;;;;;26.58;38.91;91893.41;4991633;28;7322;-44
2024/02/09 13:58:27;;;;;;;;;;;;;;;26.58;38.70;91889.91;4990528;28;9074;-43
2024/02/09 14:01:02;;;;;;;;;;;;;;;26.55;38.84;91888.34;4978204;28;7276;-42
2024/02/09 14:03:38;;;;;;;;;;;;;;;26.53;38.96;91890.94;4974487;28;7213;-41
2024/02/09 14:06:20;;;;;;;;;;;;;;;26.56;38.66;91884.25;5027585;28;7263;-43
2024/02/09 14:08:50;;;;;;;;;;;;;;;26.59;38.35;91880.34;5056807;28;9282;-42
2024/02/09 14:11:18;;;;;;;;;;;;;;;26.57;38.50;91871.94;5052680;28;7267;-43
2024/02/09 14:13:45;;;;;;;;;;;;;;;26.59;38.43;91869.34;5057678;28;7565;-43
2024/02/09 14:16:38;;;;;;;;;;;;;;;26.57;38.54;91867.16;5067659;28;7386;-44
2024/02/09 14:19:05;;;;;;;;;;;;;;;26.55;38.15;91866.28;5029979;28;7100;-44
2024/02/09 14:21:32;;;;;;;;;;;;;;;26.56;38.71;91857.41;5026505;28;9019;-43
2024/02/09 14:24:21;;;;;;;;;;;;;;;26.53;38.80;91853.09;5048539;28;7509;-42
2024/02/09 14:26:50;;;;;;;;;;;;;;;26.53;38.77;91857.88;5002945;28;7221;-43
2024/02/09 14:29:31;;;;;;;;;;;;;;;26.54;38.49;91856.53;5030178;28;7378;-42
2024/02/09 14:32:08;;;;;;;;;;;;;;;26.55;38.27;91852.50;5023765;28;6869;-42
2024/02/09 14:34:38;;;;;;;;;;;;;;;26.53;38.32;91838.56;5029216;28;7591;-42
2024/02/09 14:37:04;;;;;;;;;;;;;;;26.53;38.17;91841.31;5027587;28;6989;-42
2024/02/09 14:39:30;;;;;;;;;;;;;;;26.54;38.61;91840.00;4999425;28;9293;-42
2024/02/09 14:41:59;;;;;;;;;;;;;;;26.50;38.84;91832.19;5015325;28;7366;-42
2024/02/09 14:44:25;;;;;;;;;;;;;;;26.51;38.86;91843.94;5027193;28;7198;-42
2024/02/09 14:46:53;;;;;;;;;;;;;;;26.53;38.93;91839.31;5016604;28;8900;-43
2024/02/09 14:49:21;;;;;;;;;;;;;;;26.53;39.03;91833.06;5011567;28;7149;-42
2024/02/09 14:51:48;;;;;;;;;;;;;;;26.52;38.46;91829.56;5013457;28;7223;-42
2024/02/09 14:54:25;;;;;;;;;;;;;;;26.52;39.52;91820.56;5014840;28;9141;-42
2024/02/09 14:57:09;;;;;;;;;;;;;;;26.53;39.00;91828.28;5034704;28;9002;-42
2024/02/09 14:59:46;;;;;;;;;;;;;;;26.53;38.94;91814.50;5064207;28;7080;-42
2024/02/09 15:02:43;;;;;;;;;;;;;;;26.53;38.71;91808.97;5073659;28;9137;-42
2024/02/09 15:05:14;;;;;;;;;;;;;;;26.54;38.60;91809.69;5011478;28;8747;-42
2024/02/09 15:07:43;;;;;;;;;;;;;;;26.51;38.63;91797.06;5009035;28;9212;-42
2024/02/09 15:10:12;;;;;;;;;;;;;;;26.51;38.67;91799.81;4993555;28;7427;-42
2024/02/09 15:12:38;;;;;;;;;;;;;;;26.51;38.98;91792.25;4993504;28;8232;-42
2024/02/09 15:15:04;;;;;;;;;;;;;;;26.52;39.40;91795.75;4995061;28;7066;-43